sensor_id;sensor_type;location;lat;lon;timestamp;pressure;altitude;pressure_sealevel;temperature;humidity
75409;BME280;63979;55.644;37.734;2023-03-22T00:00:00;99635.06;;;7.23;67.15
75409;BME280;63979;55.644;37.734;2023-03-22T00:05:01;99630.97;;;7.17;67.32
75409;BME280;63979;55.644;37.734;2023-03-22T00:10:04;99632.22;;;7.26;67.00
75409;BME280;63979;55.644;37.734;2023-03-22T00:15:06;99641.91;;;7.27;67.65
75409;BME280;63979;55.644;37.734;2023-03-22T00:20:09;99637.53;;;7.26;67.01
75409;BME280;63979;55.644;37.734;2023-03-22T00:25:11;99627.09;;;7.23;67.54
75409;BME280;63979;55.644;37.734;2023-03-22T00:30:13;99635.06;;;7.23;67.49
75409;BME280;63979;55.644;37.734;2023-03-22T00:35:14;99649.53;;;7.17;67.70
75409;BME280;63979;55.644;37.734;2023-03-22T00:40:16;99651.00;;;6.91;69.27
75409;BME280;63979;55.644;37.734;2023-03-22T00:45:17;99656.84;;;6.98;69.03
75409;BME280;63979;55.644;37.734;2023-03-22T00:50:18;99677.38;;;7.10;68.58
75409;BME280;63979;55.644;37.734;2023-03-22T00:55:19;99669.78;;;7.04;69.29
75409;BME280;63979;55.644;37.734;2023-03-22T01:00:20;99674.50;;;6.99;69.05
75409;BME280;63979;55.644;37.734;2023-03-22T01:05:21;99666.25;;;6.87;69.55
75409;BME280;63979;55.644;37.734;2023-03-22T01:10:22;99680.97;;;6.93;69.67
75409;BME280;63979;55.644;37.734;2023-03-22T01:15:23;99677.06;;;7.00;68.98
75409;BME280;63979;55.644;37.734;2023-03-22T01:20:25;99674.97;;;6.89;68.87
75409;BME280;63979;55.644;37.734;2023-03-22T01:25:26;99687.66;;;6.84;69.36
75409;BME280;63979;55.644;37.734;2023-03-22T01:30:28;99694.31;;;6.60;70.33
75409;BME280;63979;55.644;37.734;2023-03-22T01:35:29;99707.41;;;6.30;71.86
75409;BME280;63979;55.644;37.734;2023-03-22T01:40:33;99713.84;;;6.09;73.43
75409;BME280;63979;55.644;37.734;2023-03-22T01:45:52;99722.72;;;6.08;73.93
75409;BME280;63979;55.644;37.734;2023-03-22T01:51:09;99726.16;;;6.10;73.97
75409;BME280;63979;55.644;37.734;2023-03-22T01:56:12;99729.16;;;6.19;73.67
75409;BME280;63979;55.644;37.734;2023-03-22T02:01:14;99729.75;;;6.42;73.31
75409;BME280;63979;55.644;37.734;2023-03-22T02:06:16;99718.75;;;6.49;72.36
75409;BME280;63979;55.644;37.734;2023-03-22T02:11:26;99727.94;;;6.60;71.94
75409;BME280;63979;55.644;37.734;2023-03-22T02:38:56;99758.72;;;6.29;72.27
75409;BME280;63979;55.644;37.734;2023-03-22T02:44:16;99750.94;;;6.26;72.08
75409;BME280;63979;55.644;37.734;2023-03-22T03:00:05;99770.41;;;6.58;70.32
75409;BME280;63979;55.644;37.734;2023-03-22T03:05:11;99770.84;;;6.50;70.23
75409;BME280;63979;55.644;37.734;2023-03-22T03:10:14;99786.28;;;6.60;70.05
75409;BME280;63979;55.644;37.734;2023-03-22T03:15:18;99770.75;;;6.52;69.54
75409;BME280;63979;55.644;37.734;2023-03-22T03:25:47;99802.41;;;6.55;70.87
75409;BME280;63979;55.644;37.734;2023-03-22T03:31:00;99801.88;;;6.66;71.01
75409;BME280;63979;55.644;37.734;2023-03-22T03:36:08;99815.28;;;6.63;71.03
75409;BME280;63979;55.644;37.734;2023-03-22T03:41:17;99808.66;;;6.54;71.54
75409;BME280;63979;55.644;37.734;2023-03-22T03:46:19;99823.16;;;6.47;72.07
75409;BME280;63979;55.644;37.734;2023-03-22T03:51:20;99830.59;;;6.40;72.27
75409;BME280;63979;55.644;37.734;2023-03-22T03:56:21;99833.84;;;6.45;71.86
75409;BME280;63979;55.644;37.734;2023-03-22T04:01:22;99833.53;;;6.51;71.61
75409;BME280;63979;55.644;37.734;2023-03-22T04:06:23;99845.78;;;6.54;70.69
75409;BME280;63979;55.644;37.734;2023-03-22T04:11:24;99849.59;;;6.66;70.26
75409;BME280;63979;55.644;37.734;2023-03-22T04:16:25;99858.63;;;6.79;69.65
75409;BME280;63979;55.644;37.734;2023-03-22T04:21:27;99848.44;;;6.71;68.93
75409;BME280;63979;55.644;37.734;2023-03-22T04:26:28;99863.28;;;6.91;68.61
75409;BME280;63979;55.644;37.734;2023-03-22T04:31:30;99837.91;;;6.70;68.21
75409;BME280;63979;55.644;37.734;2023-03-22T04:36:32;99820.53;;;6.47;68.38
75409;BME280;63979;55.644;37.734;2023-03-22T04:41:36;99841.25;;;6.56;69.23
75409;BME280;63979;55.644;37.734;2023-03-22T04:46:37;99893.88;;;6.81;68.77
75409;BME280;63979;55.644;37.734;2023-03-22T04:51:38;99866.28;;;6.68;68.92
75409;BME280;63979;55.644;37.734;2023-03-22T04:56:38;99889.00;;;6.73;68.82
75409;BME280;63979;55.644;37.734;2023-03-22T05:01:40;99870.75;;;6.67;68.79
75409;BME280;63979;55.644;37.734;2023-03-22T05:06:42;99904.19;;;6.87;68.50
75409;BME280;63979;55.644;37.734;2023-03-22T05:11:43;99910.59;;;6.83;68.54
75409;BME280;63979;55.644;37.734;2023-03-22T05:16:43;99922.06;;;6.66;68.51
75409;BME280;63979;55.644;37.734;2023-03-22T05:21:44;99929.53;;;6.58;68.77
75409;BME280;63979;55.644;37.734;2023-03-22T05:26:45;99935.50;;;6.63;68.44
75409;BME280;63979;55.644;37.734;2023-03-22T05:31:47;99944.53;;;6.76;68.61
75409;BME280;63979;55.644;37.734;2023-03-22T05:36:48;99958.03;;;6.72;68.03
75409;BME280;63979;55.644;37.734;2023-03-22T05:41:51;99957.72;;;6.61;68.42
75409;BME280;63979;55.644;37.734;2023-03-22T05:46:51;99977.69;;;6.68;68.86
75409;BME280;63979;55.644;37.734;2023-03-22T05:51:52;99967.25;;;6.65;69.03
75409;BME280;63979;55.644;37.734;2023-03-22T05:56:54;99988.31;;;6.85;67.81
75409;BME280;63979;55.644;37.734;2023-03-22T06:01:55;99987.22;;;6.89;67.34
75409;BME280;63979;55.644;37.734;2023-03-22T06:06:56;99946.41;;;6.74;67.52
75409;BME280;63979;55.644;37.734;2023-03-22T06:11:57;99996.94;;;7.23;65.71
75409;BME280;63979;55.644;37.734;2023-03-22T06:16:58;100006.25;;;7.32;64.76
75409;BME280;63979;55.644;37.734;2023-03-22T06:21:59;99999.22;;;7.13;64.17
75409;BME280;63979;55.644;37.734;2023-03-22T06:26:59;100023.50;;;7.23;64.44
75409;BME280;63979;55.644;37.734;2023-03-22T06:32:01;99950.53;;;6.80;63.58
75409;BME280;63979;55.644;37.734;2023-03-22T06:37:01;100022.97;;;7.16;63.23
75409;BME280;63979;55.644;37.734;2023-03-22T06:42:02;100024.69;;;7.17;62.08
75409;BME280;63979;55.644;37.734;2023-03-22T06:47:03;100017.97;;;7.10;62.16
75409;BME280;63979;55.644;37.734;2023-03-22T06:52:04;100011.56;;;7.14;62.30
75409;BME280;63979;55.644;37.734;2023-03-22T06:57:05;100033.59;;;7.34;61.91
75409;BME280;63979;55.644;37.734;2023-03-22T07:02:11;100029.81;;;7.38;61.02
75409;BME280;63979;55.644;37.734;2023-03-22T07:07:12;100040.66;;;7.50;60.38
75409;BME280;63979;55.644;37.734;2023-03-22T07:12:13;100034.75;;;7.78;59.33
75409;BME280;63979;55.644;37.734;2023-03-22T07:17:14;100012.31;;;8.63;57.03
75409;BME280;63979;55.644;37.734;2023-03-22T07:22:16;100021.19;;;10.78;51.75
75409;BME280;63979;55.644;37.734;2023-03-22T07:27:17;100032.66;;;12.22;45.81
75409;BME280;63979;55.644;37.734;2023-03-22T07:32:18;100058.72;;;12.43;44.95
75409;BME280;63979;55.644;37.734;2023-03-22T07:37:19;100064.38;;;12.02;45.01
75409;BME280;63979;55.644;37.734;2023-03-22T07:42:20;100055.56;;;12.62;42.95
75409;BME280;63979;55.644;37.734;2023-03-22T07:47:21;100076.28;;;15.96;36.69
75409;BME280;63979;55.644;37.734;2023-03-22T07:52:22;100073.91;;;19.89;30.56
75409;BME280;63979;55.644;37.734;2023-03-22T07:57:23;100073.75;;;19.90;29.32
75409;BME280;63979;55.644;37.734;2023-03-22T08:02:24;100074.81;;;19.54;28.39
75409;BME280;63979;55.644;37.734;2023-03-22T08:07:25;100083.44;;;19.04;28.54
75409;BME280;63979;55.644;37.734;2023-03-22T08:12:26;100087.09;;;18.58;30.67
75409;BME280;63979;55.644;37.734;2023-03-22T08:17:27;100084.22;;;16.58;32.21
75409;BME280;63979;55.644;37.734;2023-03-22T08:22:29;100077.81;;;15.68;35.08
75409;BME280;63979;55.644;37.734;2023-03-22T08:27:30;100076.94;;;14.38;37.23
75409;BME280;63979;55.644;37.734;2023-03-22T08:32:32;100079.69;;;13.58;38.20
75409;BME280;63979;55.644;37.734;2023-03-22T08:37:33;100086.78;;;12.38;41.02
75409;BME280;63979;55.644;37.734;2023-03-22T08:42:34;100087.84;;;12.48;41.34
75409;BME280;63979;55.644;37.734;2023-03-22T08:47:35;100068.09;;;12.25;41.36
75409;BME280;63979;55.644;37.734;2023-03-22T08:52:37;100086.50;;;12.66;40.56
75409;BME280;63979;55.644;37.734;2023-03-22T08:57:37;100086.56;;;12.41;40.89
75409;BME280;63979;55.644;37.734;2023-03-22T09:02:38;100043.72;;;11.79;41.75
75409;BME280;63979;55.644;37.734;2023-03-22T09:07:40;100076.84;;;13.00;39.68
75409;BME280;63979;55.644;37.734;2023-03-22T09:12:41;100083.53;;;14.00;37.90
75409;BME280;63979;55.644;37.734;2023-03-22T09:17:41;100093.84;;;13.82;37.72
75409;BME280;63979;55.644;37.734;2023-03-22T09:22:42;100078.81;;;13.22;39.38
75409;BME280;63979;55.644;37.734;2023-03-22T09:27:43;100081.22;;;12.54;39.92
75409;BME280;63979;55.644;37.734;2023-03-22T09:32:44;100097.59;;;11.47;42.12
75409;BME280;63979;55.644;37.734;2023-03-22T09:37:45;100104.13;;;10.89;43.39
75409;BME280;63979;55.644;37.734;2023-03-22T09:42:51;100096.41;;;10.29;44.28
75409;BME280;63979;55.644;37.734;2023-03-22T09:47:54;100080.31;;;10.31;44.62
75409;BME280;63979;55.644;37.734;2023-03-22T09:52:57;100065.00;;;10.20;43.97
75409;BME280;63979;55.644;37.734;2023-03-22T09:58:28;100079.50;;;9.58;46.55
75409;BME280;63979;55.644;37.734;2023-03-22T10:03:57;100054.06;;;9.52;46.40
75409;BME280;63979;55.644;37.734;2023-03-22T10:14:47;100104.22;;;11.15;44.28
75409;BME280;63979;55.644;37.734;2023-03-22T10:19:55;100032.25;;;12.15;40.38
75409;BME280;63979;55.644;37.734;2023-03-22T10:24:58;100060.44;;;12.44;40.77
75409;BME280;63979;55.644;37.734;2023-03-22T10:30:03;100102.72;;;11.76;40.35
75409;BME280;63979;55.644;37.734;2023-03-22T10:35:14;100090.91;;;11.01;42.38
75409;BME280;63979;55.644;37.734;2023-03-22T10:40:22;100086.88;;;11.08;42.55
75409;BME280;63979;55.644;37.734;2023-03-22T10:45:25;100086.22;;;11.04;42.34
75409;BME280;63979;55.644;37.734;2023-03-22T10:50:35;100075.00;;;10.99;42.99
75409;BME280;63979;55.644;37.734;2023-03-22T10:55:39;100093.66;;;10.86;43.71
75409;BME280;63979;55.644;37.734;2023-03-22T11:00:52;100090.63;;;11.45;42.28
75409;BME280;63979;55.644;37.734;2023-03-22T11:11:15;100098.13;;;12.41;40.10
75409;BME280;63979;55.644;37.734;2023-03-22T11:16:17;100100.91;;;12.53;39.60
75409;BME280;63979;55.644;37.734;2023-03-22T11:21:23;100087.94;;;12.59;39.99
75409;BME280;63979;55.644;37.734;2023-03-22T11:26:33;100101.66;;;12.91;39.01
75409;BME280;63979;55.644;37.734;2023-03-22T11:31:57;100091.75;;;12.31;40.71
75409;BME280;63979;55.644;37.734;2023-03-22T11:37:00;100081.69;;;11.19;40.87
75409;BME280;63979;55.644;37.734;2023-03-22T11:42:04;100095.69;;;10.69;42.91
75409;BME280;63979;55.644;37.734;2023-03-22T11:47:07;100085.44;;;9.91;44.96
75409;BME280;63979;55.644;37.734;2023-03-22T11:52:13;100105.94;;;9.47;46.67
75409;BME280;63979;55.644;37.734;2023-03-22T11:57:20;100097.41;;;8.80;49.51
75409;BME280;63979;55.644;37.734;2023-03-22T12:02:25;100041.78;;;8.44;50.19
75409;BME280;63979;55.644;37.734;2023-03-22T12:07:29;100087.94;;;8.90;50.38
75409;BME280;63979;55.644;37.734;2023-03-22T12:12:41;100099.34;;;9.08;50.44
75409;BME280;63979;55.644;37.734;2023-03-22T12:18:21;100078.16;;;9.51;50.83
75409;BME280;63979;55.644;37.734;2023-03-22T12:23:19;100039.69;;;10.81;46.86
75409;BME280;63979;55.644;37.734;2023-03-22T12:28:30;100087.34;;;11.67;44.48
75409;BME280;63979;55.644;37.734;2023-03-22T12:33:46;100090.03;;;11.79;43.84
75409;BME280;63979;55.644;37.734;2023-03-22T12:38:53;100089.63;;;11.98;43.04
75409;BME280;63979;55.644;37.734;2023-03-22T12:44:18;100084.56;;;13.64;40.31
75409;BME280;63979;55.644;37.734;2023-03-22T12:54:24;100080.28;;;11.66;43.77
75409;BME280;63979;55.644;37.734;2023-03-22T12:59:28;100082.00;;;11.14;45.08
75409;BME280;63979;55.644;37.734;2023-03-22T13:04:48;100085.63;;;9.74;47.75
75409;BME280;63979;55.644;37.734;2023-03-22T13:09:49;100026.38;;;9.55;48.53
75409;BME280;63979;55.644;37.734;2023-03-22T13:15:30;100063.44;;;9.74;46.53
75409;BME280;63979;55.644;37.734;2023-03-22T13:20:32;100059.56;;;10.22;45.31
75409;BME280;63979;55.644;37.734;2023-03-22T13:25:36;100077.47;;;9.47;45.94
75409;BME280;63979;55.644;37.734;2023-03-22T13:30:55;100057.16;;;9.89;45.07
75409;BME280;63979;55.644;37.734;2023-03-22T13:36:05;100071.44;;;9.88;45.63
75409;BME280;63979;55.644;37.734;2023-03-22T13:41:19;100068.00;;;9.72;46.54
75409;BME280;63979;55.644;37.734;2023-03-22T13:46:27;100060.63;;;9.47;47.10
75409;BME280;63979;55.644;37.734;2023-03-22T13:51:30;100060.16;;;9.54;47.38
75409;BME280;63979;55.644;37.734;2023-03-22T14:01:41;100043.97;;;8.83;48.90
75409;BME280;63979;55.644;37.734;2023-03-22T14:06:58;100028.81;;;8.99;48.81
75409;BME280;63979;55.644;37.734;2023-03-22T14:17:41;100035.81;;;9.16;48.63
75409;BME280;63979;55.644;37.734;2023-03-22T14:22:49;100009.38;;;8.83;48.89
75409;BME280;63979;55.644;37.734;2023-03-22T14:27:51;100033.69;;;8.77;48.99
75409;BME280;63979;55.644;37.734;2023-03-22T14:32:57;100034.22;;;8.52;49.65
75409;BME280;63979;55.644;37.734;2023-03-22T14:38:05;100041.00;;;8.58;49.27
75409;BME280;63979;55.644;37.734;2023-03-22T14:43:20;100009.38;;;8.37;49.04
75409;BME280;63979;55.644;37.734;2023-03-22T14:48:23;100030.91;;;8.49;49.70
75409;BME280;63979;55.644;37.734;2023-03-22T14:53:34;100032.44;;;8.53;49.78
75409;BME280;63979;55.644;37.734;2023-03-22T14:58:37;100031.09;;;8.28;49.86
75409;BME280;63979;55.644;37.734;2023-03-22T15:03:39;100033.13;;;8.40;49.16
75409;BME280;63979;55.644;37.734;2023-03-22T15:08:44;100026.88;;;8.41;49.38
75409;BME280;63979;55.644;37.734;2023-03-22T15:13:46;99993.38;;;8.22;49.22
75409;BME280;63979;55.644;37.734;2023-03-22T15:18:51;100035.56;;;8.12;50.61
75409;BME280;63979;55.644;37.734;2023-03-22T15:23:53;100030.13;;;7.98;51.32
75409;BME280;63979;55.644;37.734;2023-03-22T15:29:01;100023.50;;;7.73;52.58
75409;BME280;63979;55.644;37.734;2023-03-22T15:34:08;100017.66;;;7.34;54.11
75409;BME280;63979;55.644;37.734;2023-03-22T15:39:43;100029.13;;;7.17;54.70
75409;BME280;63979;55.644;37.734;2023-03-22T15:45:17;100021.81;;;7.05;55.22
75409;BME280;63979;55.644;37.734;2023-03-22T15:50:20;100044.06;;;7.02;55.73
75409;BME280;63979;55.644;37.734;2023-03-22T15:55:32;100045.72;;;6.86;55.80
75409;BME280;63979;55.644;37.734;2023-03-22T16:00:36;100034.09;;;6.71;56.52
75409;BME280;63979;55.644;37.734;2023-03-22T16:05:40;100046.66;;;6.68;56.68
75409;BME280;63979;55.644;37.734;2023-03-22T16:10:43;100026.63;;;6.43;57.33
75409;BME280;63979;55.644;37.734;2023-03-22T16:15:45;100051.56;;;6.39;58.24
75409;BME280;63979;55.644;37.734;2023-03-22T16:20:47;100054.66;;;6.30;58.41
75409;BME280;63979;55.644;37.734;2023-03-22T16:25:49;100065.28;;;6.30;58.73
75409;BME280;63979;55.644;37.734;2023-03-22T16:30:49;100055.06;;;6.21;58.82
75409;BME280;63979;55.644;37.734;2023-03-22T16:35:50;100060.19;;;6.07;58.80
75409;BME280;63979;55.644;37.734;2023-03-22T16:40:52;100062.47;;;5.96;58.10
75409;BME280;63979;55.644;37.734;2023-03-22T16:45:53;100049.88;;;6.01;57.35
75409;BME280;63979;55.644;37.734;2023-03-22T16:50:55;100060.88;;;5.91;55.24
75409;BME280;63979;55.644;37.734;2023-03-22T16:55:56;100066.03;;;5.94;55.39
75409;BME280;63979;55.644;37.734;2023-03-22T17:00:57;100059.03;;;5.93;53.59
75409;BME280;63979;55.644;37.734;2023-03-22T17:05:59;100013.16;;;5.73;53.68
75409;BME280;63979;55.644;37.734;2023-03-22T17:11:00;100064.25;;;5.95;53.53
75409;BME280;63979;55.644;37.734;2023-03-22T17:16:01;100053.03;;;5.90;53.33
75409;BME280;63979;55.644;37.734;2023-03-22T17:21:03;100035.84;;;5.78;53.11
75409;BME280;63979;55.644;37.734;2023-03-22T17:26:04;100062.63;;;5.92;53.28
75409;BME280;63979;55.644;37.734;2023-03-22T17:31:06;100066.25;;;5.88;53.42
75409;BME280;63979;55.644;37.734;2023-03-22T17:36:16;100069.84;;;5.87;53.19
75409;BME280;63979;55.644;37.734;2023-03-22T17:41:18;100071.84;;;5.82;53.78
75409;BME280;63979;55.644;37.734;2023-03-22T17:46:19;100060.47;;;5.80;54.17
75409;BME280;63979;55.644;37.734;2023-03-22T17:51:20;100036.00;;;5.55;54.28
75409;BME280;63979;55.644;37.734;2023-03-22T17:56:21;100018.97;;;5.42;54.33
75409;BME280;63979;55.644;37.734;2023-03-22T18:01:23;100072.53;;;5.67;54.51
75409;BME280;63979;55.644;37.734;2023-03-22T18:06:24;100051.09;;;5.73;54.46
75409;BME280;63979;55.644;37.734;2023-03-22T18:11:25;99995.00;;;5.45;54.22
75409;BME280;63979;55.644;37.734;2023-03-22T18:16:26;100070.50;;;5.94;54.14
75409;BME280;63979;55.644;37.734;2023-03-22T18:21:29;100064.19;;;5.97;54.22
75409;BME280;63979;55.644;37.734;2023-03-22T18:26:32;100062.91;;;6.05;53.42
75409;BME280;63979;55.644;37.734;2023-03-22T18:31:34;100072.00;;;6.00;53.96
75409;BME280;63979;55.644;37.734;2023-03-22T18:36:36;100053.88;;;5.90;53.93
75409;BME280;63979;55.644;37.734;2023-03-22T18:41:37;100053.09;;;5.87;54.17
75409;BME280;63979;55.644;37.734;2023-03-22T18:46:41;100069.34;;;6.00;54.30
75409;BME280;63979;55.644;37.734;2023-03-22T18:51:47;100065.34;;;5.91;54.40
75409;BME280;63979;55.644;37.734;2023-03-22T18:56:48;100068.03;;;5.89;54.76
75409;BME280;63979;55.644;37.734;2023-03-22T19:01:49;100057.81;;;5.80;55.02
75409;BME280;63979;55.644;37.734;2023-03-22T19:06:51;100061.47;;;5.78;54.81
75409;BME280;63979;55.644;37.734;2023-03-22T19:11:52;100059.50;;;5.62;55.29
75409;BME280;63979;55.644;37.734;2023-03-22T19:16:53;100033.25;;;5.38;55.92
75409;BME280;63979;55.644;37.734;2023-03-22T19:21:54;100030.22;;;5.26;56.05
75409;BME280;63979;55.644;37.734;2023-03-22T19:26:56;100049.28;;;5.35;56.20
75409;BME280;63979;55.644;37.734;2023-03-22T19:31:59;100027.78;;;5.22;56.16
75409;BME280;63979;55.644;37.734;2023-03-22T19:37:00;100041.97;;;5.19;56.44
75409;BME280;63979;55.644;37.734;2023-03-22T19:42:01;100042.91;;;5.18;56.45
75409;BME280;63979;55.644;37.734;2023-03-22T19:47:04;100039.47;;;5.16;56.48
75409;BME280;63979;55.644;37.734;2023-03-22T19:52:06;100038.69;;;5.14;56.69
75409;BME280;63979;55.644;37.734;2023-03-22T19:57:07;100047.16;;;5.22;56.68
75409;BME280;63979;55.644;37.734;2023-03-22T20:02:09;100042.47;;;5.29;55.85
75409;BME280;63979;55.644;37.734;2023-03-22T20:07:10;100032.47;;;5.36;55.55
75409;BME280;63979;55.644;37.734;2023-03-22T20:12:11;100031.25;;;5.43;55.61
75409;BME280;63979;55.644;37.734;2023-03-22T20:17:12;100025.31;;;5.38;55.13
75409;BME280;63979;55.644;37.734;2023-03-22T20:22:14;100030.78;;;5.53;55.29
75409;BME280;63979;55.644;37.734;2023-03-22T20:27:15;100037.63;;;5.59;54.95
75409;BME280;63979;55.644;37.734;2023-03-22T20:32:17;100033.63;;;5.69;54.68
75409;BME280;63979;55.644;37.734;2023-03-22T20:37:18;100029.91;;;5.73;54.44
75409;BME280;63979;55.644;37.734;2023-03-22T20:42:22;100022.81;;;5.74;55.10
75409;BME280;63979;55.644;37.734;2023-03-22T20:47:22;100005.41;;;5.68;54.90
75409;BME280;63979;55.644;37.734;2023-03-22T20:52:24;100048.16;;;6.00;53.95
75409;BME280;63979;55.644;37.734;2023-03-22T20:57:26;100039.41;;;5.98;54.20
75409;BME280;63979;55.644;37.734;2023-03-22T21:02:27;100035.97;;;5.96;54.48
75409;BME280;63979;55.644;37.734;2023-03-22T21:07:28;100040.97;;;6.02;54.33
75409;BME280;63979;55.644;37.734;2023-03-22T21:12:29;100050.16;;;5.94;55.75
75409;BME280;63979;55.644;37.734;2023-03-22T21:17:30;100024.03;;;5.85;55.09
75409;BME280;63979;55.644;37.734;2023-03-22T21:22:32;100039.41;;;5.98;54.96
75409;BME280;63979;55.644;37.734;2023-03-22T21:27:33;100038.84;;;6.10;54.81
75409;BME280;63979;55.644;37.734;2023-03-22T21:32:34;100021.34;;;6.06;54.87
75409;BME280;63979;55.644;37.734;2023-03-22T21:37:36;100026.22;;;6.15;54.64
75409;BME280;63979;55.644;37.734;2023-03-22T21:42:37;100033.31;;;6.14;55.34
75409;BME280;63979;55.644;37.734;2023-03-22T21:47:46;100018.75;;;6.23;54.87
75409;BME280;63979;55.644;37.734;2023-03-22T21:52:52;100008.59;;;6.14;55.02
75409;BME280;63979;55.644;37.734;2023-03-22T21:57:53;99995.00;;;6.03;54.98
75409;BME280;63979;55.644;37.734;2023-03-22T22:02:55;100028.94;;;6.32;54.96
75409;BME280;63979;55.644;37.734;2023-03-22T22:07:57;100002.75;;;6.26;54.82
75409;BME280;63979;55.644;37.734;2023-03-22T22:12:58;100023.34;;;6.38;54.73
75409;BME280;63979;55.644;37.734;2023-03-22T22:17:59;100033.66;;;6.44;54.81
75409;BME280;63979;55.644;37.734;2023-03-22T22:23:01;100023.34;;;6.38;54.88
75409;BME280;63979;55.644;37.734;2023-03-22T22:28:02;100028.66;;;6.38;54.92
75409;BME280;63979;55.644;37.734;2023-03-22T22:33:03;100013.81;;;6.34;55.31
75409;BME280;63979;55.644;37.734;2023-03-22T22:38:04;100026.41;;;6.48;55.00
75409;BME280;63979;55.644;37.734;2023-03-22T22:43:06;100018.50;;;6.29;55.48
75409;BME280;63979;55.644;37.734;2023-03-22T22:48:07;99991.75;;;6.15;55.15
75409;BME280;63979;55.644;37.734;2023-03-22T22:53:08;100033.94;;;6.38;55.21
75409;BME280;63979;55.644;37.734;2023-03-22T22:58:10;100025.06;;;6.39;55.30
75409;BME280;63979;55.644;37.734;2023-03-22T23:03:10;100018.03;;;6.38;55.63
75409;BME280;63979;55.644;37.734;2023-03-22T23:08:11;100016.25;;;6.39;55.42
75409;BME280;63979;55.644;37.734;2023-03-22T23:13:13;100044.41;;;6.41;55.91
75409;BME280;63979;55.644;37.734;2023-03-22T23:18:15;100041.13;;;6.36;56.07
75409;BME280;63979;55.644;37.734;2023-03-22T23:23:23;99983.97;;;6.12;56.23
75409;BME280;63979;55.644;37.734;2023-03-22T23:28:27;100037.38;;;6.40;56.01
75409;BME280;63979;55.644;37.734;2023-03-22T23:33:36;100033.66;;;6.44;56.21
75409;BME280;63979;55.644;37.734;2023-03-22T23:38:37;100025.63;;;6.46;55.93
75409;BME280;63979;55.644;37.734;2023-03-22T23:43:38;100023.72;;;6.31;56.80
75409;BME280;63979;55.644;37.734;2023-03-22T23:48:39;100015.47;;;6.37;56.96
75409;BME280;63979;55.644;37.734;2023-03-22T23:53:41;100041.25;;;6.33;57.03
75409;BME280;63979;55.644;37.734;2023-03-22T23:58:42;100030.81;;;6.30;57.43
